| time (UTC) | temp F | wind direction | speed knots | gust knots | rain 1hr in | rain 24hr in | rain mn in | humidity % | barometer mb |
| 20260504173509 | 53 | 360 | 0.0 | 5.2 | 0.00 | 0.00 | 0.00 | 52 | 1010.7 |
| 20260504173009 | 52 | 360 | 0.0 | 5.2 | 0.00 | 0.00 | 0.00 | 54 | 1010.7 |
| 20260504172506 | 52 | 360 | 0.0 | 0.0 | 0.00 | 0.00 | 0.00 | 54 | 1010.7 |
| 20260504172006 | 52 | 360 | 0.0 | 7.0 | 0.00 | 0.00 | 0.00 | 54 | 1010.8 |
| 20260504171506 | 52 | 360 | 0.9 | 7.8 | 0.00 | 0.00 | 0.00 | 54 | 1010.8 |
| 20260504171005 | 52 | 360 | 0.9 | 7.8 | 0.00 | 0.00 | 0.00 | 54 | 1010.8 |
| 20260504170505 | 52 | 360 | 0.0 | 0.0 | 0.00 | 0.00 | 0.00 | 55 | 1010.8 |
| 20260504151048 | 49 | 13 | 0.0 | 1.7 | 0.00 | 0.00 | 0.00 | 56 | 1011.7 |
| 20260504150547 | 49 | 360 | 0.0 | 1.7 | 0.00 | 0.00 | 0.00 | 56 | 1011.7 |
| 20260504141042 | 48 | 360 | 0.0 | 0.0 | 0.00 | 0.00 | 0.00 | 63 | 1011.7 |
| 20260504140542 | 47 | 360 | 0.0 | 0.0 | 0.00 | 0.00 | 0.00 | 62 | 1011.7 |
| 20260504130531 | 44 | 360 | 0.0 | 0.0 | 0.00 | 0.00 | 0.00 | 66 | 1011.2 |
| 20260504110513 | 46 | 360 | 0.0 | 0.0 | 0.00 | 0.00 | 0.00 | 60 | 1008.9 |
| 20260504100559 | 47 | 13 | 0.0 | 0.0 | 0.00 | 0.00 | 0.00 | 59 | 1007.5 |
| 20260504100104 | 47 | 360 | 0.0 | 0.0 | 0.00 | 0.00 | 0.00 | 59 | 1007.5 |
| 20260504081536 | 48 | 360 | 0.0 | 0.0 | 0.00 | 0.00 | 0.00 | 59 | 1005.0 |
| 20260504081036 | 48 | 360 | 0.0 | 0.0 | 0.00 | 0.00 | 0.00 | 58 | 1005.0 |
| 20260504080535 | 49 | 360 | 0.0 | 0.0 | 0.00 | 0.00 | 0.00 | 57 | 1004.8 |
| 20260504050517 | 53 | 360 | 0.0 | 0.0 | 0.00 | 0.00 | 0.00 | 51 | 1002.8 |
| 20260504050012 | 54 | 360 | 0.0 | 0.0 | 0.00 | 0.00 | 0.00 | 51 | 1002.8 |
| 20260504045512 | 54 | 360 | 0.0 | 0.0 | 0.00 | 0.00 | 0.00 | 50 | 1002.9 |
| 20260504045016 | 55 | 360 | 0.0 | 0.0 | 0.00 | 0.00 | 0.00 | 48 | 1002.9 |
| 20260504044512 | 55 | 360 | 0.0 | 0.0 | 0.00 | 0.00 | 0.00 | 49 | 1002.9 |
| 20260504044012 | 55 | 360 | 0.0 | 0.0 | 0.00 | 0.00 | 0.00 | 48 | 1002.9 |
| 20260504043511 | 55 | 360 | 0.0 | 0.0 | 0.00 | 0.00 | 0.00 | 48 | 1002.8 |
| 20260504043013 | 56 | 360 | 0.0 | 0.0 | 0.00 | 0.00 | 0.00 | 47 | 1002.7 |
| 20260504042512 | 56 | 360 | 0.0 | 0.0 | 0.00 | 0.00 | 0.00 | 46 | 1002.7 |
| 20260504042010 | 57 | 360 | 0.0 | 0.0 | 0.00 | 0.00 | 0.00 | 47 | 1002.7 |
| 20260504041510 | 58 | 360 | 0.0 | 0.0 | 0.00 | 0.00 | 0.00 | 45 | 1002.6 |
| 20260504041010 | 58 | 360 | 0.0 | 0.0 | 0.00 | 0.00 | 0.00 | 44 | 1002.6 |
| 20260504040510 | 58 | 360 | 0.0 | 0.0 | 0.00 | 0.00 | 0.00 | 44 | 1002.6 |
| 20260504040027 | 59 | 360 | 0.0 | 0.0 | 0.00 | 0.00 | 0.00 | 44 | 1002.6 |
| 20260504035512 | 60 | 360 | 0.0 | 0.0 | 0.00 | 0.00 | 0.00 | 42 | 1002.6 |
| 20260504035010 | 60 | 360 | 0.0 | 0.0 | 0.00 | 0.00 | 0.00 | 42 | 1002.5 |
| 20260504034509 | 61 | 360 | 0.0 | 0.0 | 0.00 | 0.00 | 0.00 | 40 | 1002.5 |
| 20260504034008 | 61 | 360 | 0.0 | 0.0 | 0.00 | 0.00 | 0.00 | 39 | 1002.4 |
| 20260504033509 | 62 | 360 | 0.0 | 0.0 | 0.00 | 0.00 | 0.00 | 38 | 1002.3 |
| 20260504033008 | 63 | 360 | 0.0 | 0.0 | 0.00 | 0.00 | 0.00 | 37 | 1002.2 |
| 20260504032509 | 63 | 360 | 0.0 | 0.0 | 0.00 | 0.00 | 0.00 | 36 | 1002.1 |
| 20260504032012 | 64 | 360 | 0.0 | 0.0 | 0.00 | 0.00 | 0.00 | 34 | 1002.1 |
| 20260504031508 | 65 | 360 | 0.0 | 0.0 | 0.00 | 0.00 | 0.00 | 34 | 1002.1 |
| 20260504031007 | 65 | 360 | 0.0 | 0.0 | 0.00 | 0.00 | 0.00 | 33 | 1002.0 |
| 20260504030508 | 65 | 360 | 0.0 | 0.0 | 0.00 | 0.00 | 0.00 | 33 | 1001.9 |
| 20260504030009 | 66 | 360 | 0.0 | 0.0 | 0.00 | 0.00 | 0.00 | 33 | 1001.9 |
| 20260504025508 | 66 | 15 | 0.0 | 0.0 | 0.00 | 0.00 | 0.00 | 33 | 1001.8 |
| 20260504025009 | 67 | 360 | 0.0 | 0.0 | 0.00 | 0.00 | 0.00 | 34 | 1001.8 |
| 20260504024508 | 67 | 16 | 0.0 | 0.0 | 0.00 | 0.00 | 0.00 | 35 | 1001.8 |
| 20260504024010 | 67 | 360 | 0.0 | 0.0 | 0.00 | 0.00 | 0.00 | 35 | 1001.7 |
| 20260504023509 | 68 | 360 | 0.0 | 0.0 | 0.00 | 0.00 | 0.00 | 35 | 1001.7 |
| 20260504023007 | 68 | 360 | 0.0 | 0.0 | 0.00 | 0.00 | 0.00 | 35 | 1001.7 |
| 20260504022506 | 69 | 360 | 0.0 | 0.0 | 0.00 | 0.00 | 0.00 | 34 | 1001.6 |
| 20260504022007 | 69 | 360 | 0.0 | 0.0 | 0.00 | 0.00 | 0.00 | 33 | 1001.6 |
| 20260504021605 | 70 | 360 | 0.0 | 0.0 | 0.00 | 0.00 | 0.00 | 33 | 1001.5 |
| 20260504021005 | 70 | 360 | 0.0 | 0.0 | 0.00 | 0.00 | 0.00 | 32 | 1001.4 |
| 20260504020505 | 71 | 360 | 0.0 | 0.0 | 0.00 | 0.00 | 0.00 | 31 | 1001.4 |
| 20260504020004 | 71 | 360 | 0.0 | 0.0 | 0.00 | 0.00 | 0.00 | 30 | 1001.5 |
| 20260504015503 | 72 | 360 | 0.0 | 0.0 | 0.00 | 0.00 | 0.00 | 30 | 1001.5 |
| 20260504015003 | 72 | 360 | 0.0 | 0.0 | 0.00 | 0.00 | 0.00 | 30 | 1001.5 |
| 20260504014507 | 73 | 360 | 0.0 | 0.0 | 0.00 | 0.00 | 0.00 | 29 | 1001.6 |
| 20260504014002 | 74 | 360 | 0.0 | 0.0 | 0.00 | 0.00 | 0.00 | 27 | 1001.5 |
| 20260504013502 | 74 | 360 | 0.0 | 0.0 | 0.00 | 0.00 | 0.00 | 27 | 1001.6 |
| 20260504013113 | 74 | 360 | 0.0 | 0.0 | 0.00 | 0.00 | 0.00 | 26 | 1001.6 |
| 20260504012600 | 75 | 360 | 0.0 | 8.7 | 0.00 | 0.00 | 0.00 | 25 | 1001.6 |
| 20260504012100 | 75 | 360 | 0.9 | 8.7 | 0.00 | 0.00 | 0.00 | 23 | 1001.6 |
| 20260504011600 | 75 | 360 | 0.0 | 0.0 | 0.00 | 0.00 | 0.00 | 23 | 1001.7 |
| 20260504011059 | 75 | 360 | 0.0 | 0.0 | 0.00 | 0.00 | 0.00 | 22 | 1001.7 |
| 20260504010559 | 75 | 360 | 0.0 | 0.0 | 0.00 | 0.00 | 0.00 | 22 | 1001.7 |
| 20260504010058 | 76 | 360 | 0.0 | 7.0 | 0.00 | 0.00 | 0.00 | 22 | 1001.8 |
| 20260504005559 | 76 | 360 | 0.0 | 7.0 | 0.00 | 0.00 | 0.00 | 22 | 1001.8 |
| 20260504005102 | 77 | 360 | 0.0 | 0.0 | 0.00 | 0.00 | 0.00 | 23 | 1001.8 |
| 20260504004558 | 77 | 360 | 0.0 | 0.0 | 0.00 | 0.00 | 0.00 | 22 | 1001.8 |
| 20260504004058 | 77 | 360 | 0.0 | 0.0 | 0.00 | 0.00 | 0.00 | 21 | 1001.8 |
| 20260504003557 | 77 | 360 | 0.0 | 7.8 | 0.00 | 0.00 | 0.00 | 21 | 1001.9 |
| 20260504003103 | 77 | 360 | 0.0 | 7.8 | 0.00 | 0.00 | 0.00 | 21 | 1001.9 |
| 20260504002555 | 78 | 360 | 0.0 | 0.0 | 0.00 | 0.00 | 0.00 | 21 | 1002.0 |
| 20260504002055 | 77 | 360 | 0.0 | 0.0 | 0.00 | 0.00 | 0.00 | 22 | 1002.0 |
| 20260504001606 | 77 | 360 | 0.0 | 5.2 | 0.00 | 0.00 | 0.00 | 21 | 1002.1 |
| 20260504001055 | 77 | 360 | 0.0 | 9.6 | 0.00 | 0.00 | 0.00 | 21 | 1002.2 |
| 20260504000553 | 77 | 360 | 0.0 | 9.6 | 0.00 | 0.00 | 0.00 | 21 | 1002.2 |
| 20260504000115 | 77 | 360 | 0.0 | 2.6 | 0.00 | 0.00 | 0.00 | 20 | 1002.3 |
| 20260503235553 | 77 | 360 | 0.0 | 4.3 | 0.00 | 0.00 | 0.00 | 21 | 1002.3 |
| 20260503235053 | 77 | 360 | 0.0 | 4.3 | 0.00 | 0.00 | 0.00 | 20 | 1002.4 |
| 20260503234552 | 77 | 360 | 0.0 | 2.6 | 0.00 | 0.00 | 0.00 | 20 | 1002.4 |
| 20260503234052 | 78 | 360 | 0.0 | 5.2 | 0.00 | 0.00 | 0.00 | 19 | 1002.4 |
| 20260503233551 | 78 | 360 | 0.0 | 12.2 | 0.00 | 0.00 | 0.00 | 20 | 1002.5 |
| 20260503233050 | 78 | 360 | 2.6 | 8.7 | 0.00 | 0.00 | 0.00 | 19 | 1002.5 |
| 20260503232550 | 79 | 360 | 0.0 | 7.0 | 0.00 | 0.00 | 0.00 | 19 | 1002.6 |
| 20260503232049 | 78 | 360 | 0.0 | 7.0 | 0.00 | 0.00 | 0.00 | 19 | 1002.6 |
| 20260503231549 | 78 | 360 | 0.0 | 9.6 | 0.00 | 0.00 | 0.00 | 19 | 1002.7 |
| 20260503231049 | 78 | 360 | 0.9 | 9.6 | 0.00 | 0.00 | 0.00 | 18 | 1002.8 |
| 20260503230546 | 78 | 360 | 0.0 | 7.8 | 0.00 | 0.00 | 0.00 | 19 | 1002.9 |
| 20260503230050 | 78 | 360 | 0.0 | 8.7 | 0.00 | 0.00 | 0.00 | 19 | 1003.0 |
| 20260503225543 | 78 | 360 | 1.7 | 8.7 | 0.00 | 0.00 | 0.00 | 19 | 1003.0 |
| 20260503225043 | 78 | 360 | 0.9 | 7.8 | 0.00 | 0.00 | 0.00 | 22 | 1003.0 |
| 20260503224546 | 77 | 360 | 0.0 | 7.8 | 0.00 | 0.00 | 0.00 | 23 | 1003.2 |
| 20260503224042 | 78 | 360 | 0.0 | 7.0 | 0.00 | 0.00 | 0.00 | 24 | 1003.2 |
| 20260503223541 | 77 | 360 | 0.0 | 7.0 | 0.00 | 0.00 | 0.00 | 25 | 1003.3 |
| 20260503223141 | 77 | 360 | 0.0 | 9.6 | 0.00 | 0.00 | 0.00 | 24 | 1003.3 |
| 20260503222538 | 77 | 360 | 0.0 | 9.6 | 0.00 | 0.00 | 0.00 | 24 | 1003.5 |
| 20260503222042 | 77 | 360 | 2.6 | 9.6 | 0.00 | 0.00 | 0.00 | 24 | 1003.6 |
| 20260503221537 | 77 | 360 | 0.9 | 8.7 | 0.00 | 0.00 | 0.00 | 25 | 1003.7 |
| 20260503221037 | 77 | 360 | 0.0 | 7.8 | 0.00 | 0.00 | 0.00 | 25 | 1003.8 |
| 20260503220535 | 76 | 360 | 1.7 | 7.8 | 0.00 | 0.00 | 0.00 | 26 | 1004.0 |
| 20260503220034 | 77 | 360 | 0.0 | 4.3 | 0.00 | 0.00 | 0.00 | 25 | 1004.1 |
| 20260503215534 | 77 | 360 | 0.0 | 0.0 | 0.00 | 0.00 | 0.00 | 26 | 1004.1 |
| 20260503215032 | 77 | 360 | 0.0 | 7.0 | 0.00 | 0.00 | 0.00 | 26 | 1004.3 |
| 20260503214532 | 77 | 360 | 0.0 | 7.0 | 0.00 | 0.00 | 0.00 | 27 | 1004.4 |
| 20260503214031 | 77 | 360 | 0.0 | 5.2 | 0.00 | 0.00 | 0.00 | 24 | 1004.5 |
| 20260503213529 | 77 | 360 | 0.0 | 8.7 | 0.00 | 0.00 | 0.00 | 28 | 1004.6 |
| 20260503213028 | 77 | 360 | 0.0 | 9.6 | 0.00 | 0.00 | 0.00 | 25 | 1004.8 |
| 20260503212527 | 77 | 360 | 0.0 | 9.6 | 0.00 | 0.00 | 0.00 | 25 | 1004.9 |
| 20260503212027 | 76 | 360 | 0.0 | 9.6 | 0.00 | 0.00 | 0.00 | 26 | 1005.0 |
| 20260503211526 | 77 | 360 | 0.0 | 8.7 | 0.00 | 0.00 | 0.00 | 25 | 1005.3 |
| 20260503211029 | 77 | 360 | 0.0 | 0.0 | 0.00 | 0.00 | 0.00 | 27 | 1005.4 |
| 20260503210529 | 76 | 360 | 0.0 | 5.2 | 0.00 | 0.00 | 0.00 | 26 | 1005.4 |
| 20260503210023 | 76 | 360 | 0.0 | 5.2 | 0.00 | 0.00 | 0.00 | 26 | 1005.6 |
| 20260503205522 | 76 | 360 | 0.0 | 5.2 | 0.00 | 0.00 | 0.00 | 25 | 1005.7 |
| 20260503205022 | 76 | 360 | 0.0 | 8.7 | 0.00 | 0.00 | 0.00 | 24 | 1005.8 |
| 20260503204527 | 75 | 360 | 0.9 | 13.0 | 0.00 | 0.00 | 0.00 | 26 | 1006.0 |
| 20260503204023 | 75 | 360 | 0.0 | 13.0 | 0.00 | 0.00 | 0.00 | 26 | 1005.9 |
| 20260503203523 | 76 | 360 | 0.0 | 8.7 | 0.00 | 0.00 | 0.00 | 27 | 1006.1 |
| 20260503203018 | 75 | 360 | 1.7 | 8.7 | 0.00 | 0.00 | 0.00 | 28 | 1006.2 |
| 20260503202518 | 75 | 360 | 3.5 | 10.4 | 0.00 | 0.00 | 0.00 | 27 | 1006.3 |
| 20260503202017 | 75 | 360 | 2.6 | 10.4 | 0.00 | 0.00 | 0.00 | 28 | 1006.4 |
| 20260503201515 | 75 | 360 | 0.9 | 7.0 | 0.00 | 0.00 | 0.00 | 27 | 1006.5 |
| 20260503201013 | 75 | 360 | 0.0 | 4.3 | 0.00 | 0.00 | 0.00 | 26 | 1006.6 |
| 20260503200513 | 74 | 360 | 0.0 | 3.5 | 0.00 | 0.00 | 0.00 | 28 | 1006.8 |
| 20260503200011 | 74 | 360 | 0.0 | 7.8 | 0.00 | 0.00 | 0.00 | 30 | 1006.8 |
| 20260503195510 | 74 | 360 | 0.0 | 7.8 | 0.00 | 0.00 | 0.00 | 31 | 1006.9 |
| 20260503195010 | 74 | 360 | 0.0 | 7.8 | 0.00 | 0.00 | 0.00 | 31 | 1007.0 |
| 20260503194509 | 74 | 360 | 0.0 | 7.8 | 0.00 | 0.00 | 0.00 | 30 | 1007.1 |
| 20260503194008 | 74 | 360 | 0.0 | 4.3 | 0.00 | 0.00 | 0.00 | 31 | 1007.2 |
| 20260503193510 | 73 | 360 | 0.0 | 4.3 | 0.00 | 0.00 | 0.00 | 31 | 1007.3 |
| 20260503193015 | 73 | 360 | 0.0 | 7.0 | 0.00 | 0.00 | 0.00 | 31 | 1007.4 |
| 20260503192504 | 72 | 360 | 0.9 | 7.0 | 0.00 | 0.00 | 0.00 | 32 | 1007.6 |
| 20260503192005 | 72 | 360 | 0.0 | 4.3 | 0.00 | 0.00 | 0.00 | 32 | 1007.7 |
| 20260503191502 | 73 | 360 | 0.0 | 8.7 | 0.00 | 0.00 | 0.00 | 34 | 1007.9 |
| 20260503191002 | 73 | 360 | 1.7 | 9.6 | 0.00 | 0.00 | 0.00 | 32 | 1008.1 |
| 20260503190600 | 73 | 360 | 0.0 | 9.6 | 0.00 | 0.00 | 0.00 | 31 | 1008.1 |
| 20260503190105 | 72 | 360 | 0.9 | 7.8 | 0.00 | 0.00 | 0.00 | 34 | 1008.2 |
| 20260503185558 | 72 | 360 | 1.7 | 8.7 | 0.00 | 0.00 | 0.00 | 31 | 1008.4 |
| 20260503185059 | 72 | 360 | 0.0 | 8.7 | 0.00 | 0.00 | 0.00 | 32 | 1008.5 |
| 20260503184556 | 72 | 360 | 0.0 | 4.3 | 0.00 | 0.00 | 0.00 | 33 | 1008.6 |
| 20260503184054 | 71 | 360 | 0.0 | 7.0 | 0.00 | 0.00 | 0.00 | 34 | 1008.6 |
| 20260503183553 | 71 | 360 | 0.0 | 7.0 | 0.00 | 0.00 | 0.00 | 32 | 1008.8 |
| 20260503183108 | 71 | 360 | 0.0 | 0.0 | 0.00 | 0.00 | 0.00 | 40 | 1008.8 |
| 20260503182551 | 70 | 360 | 0.0 | 0.0 | 0.00 | 0.00 | 0.00 | 39 | 1008.9 |
| 20260503182049 | 70 | 360 | 0.0 | 0.0 | 0.00 | 0.00 | 0.00 | 40 | 1009.0 |
| 20260503181614 | 69 | 360 | 0.0 | 4.3 | 0.00 | 0.00 | 0.00 | 40 | 1009.2 |
| 20260503181047 | 69 | 360 | 0.0 | 3.5 | 0.00 | 0.00 | 0.00 | 40 | 1009.3 |
| 20260503180546 | 69 | 360 | 0.0 | 0.0 | 0.00 | 0.00 | 0.00 | 42 | 1009.4 |
| 20260503180045 | 69 | 360 | 0.0 | 0.0 | 0.00 | 0.00 | 0.00 | 41 | 1009.5 |
| 20260503175543 | 69 | 360 | 0.0 | 0.0 | 0.00 | 0.00 | 0.00 | 40 | 1009.6 |
| 20260503175045 | 69 | 360 | 0.0 | 0.0 | 0.00 | 0.00 | 0.00 | 41 | 1009.7 |
| 20260503174542 | 69 | 360 | 0.0 | 0.0 | 0.00 | 0.00 | 0.00 | 42 | 1009.8 |
| 20260503174039 | 68 | 360 | 0.0 | 0.0 | 0.00 | 0.00 | 0.00 | 44 | 1009.9 |